Time;durP1;ratioP1;P1;durP2;ratioP2;P2;SDS_P1;SDS_P2;PMS_P1;PMS_P2;Temp;Humidity;BMP_temperature;BMP_pressure;BME280_temperature;BME280_humidity;BME280_pressure;Samples;Min_cycle;Max_cycle;Signal;HPM_P1;HPM_P2
2022/12/25 00:00:10;;;;;;;9.70;8.50;;;;;;;-143.84;85.41;44523.56;5050484;28;20901;-77
2022/12/25 00:02:38;;;;;;;12.73;9.10;;;;;;;-143.84;85.35;44504.53;5049845;28;20455;-77
2022/12/25 00:05:06;;;;;;;9.33;8.30;;;;;;;-143.84;85.29;44555.94;5050189;28;20444;-77
2022/12/25 00:07:34;;;;;;;12.10;8.50;;;;;;;-143.84;85.31;44578.78;5049825;28;20479;-77
2022/12/25 00:10:02;;;;;;;12.80;8.50;;;;;;;-143.84;85.43;44531.19;5050577;28;20452;-77
2022/12/25 00:12:29;;;;;;;10.63;9.50;;;;;;;-143.84;85.45;44540.69;5050469;28;20448;-77
2022/12/25 00:14:56;;;;;;;12.20;9.40;;;;;;;-143.84;85.39;44576.88;5050501;28;20978;-77
2022/12/25 00:17:23;;;;;;;14.37;9.80;;;;;;;-143.84;85.67;44538.78;5050308;28;20469;-77
2022/12/25 00:19:51;;;;;;;12.57;9.63;;;;;;;-143.84;85.60;44523.56;5050284;28;20472;-78
2022/12/25 00:22:18;;;;;;;13.63;8.70;;;;;;;-143.84;85.71;44485.47;5050153;28;20542;-77
2022/12/25 00:24:47;;;;;;;11.00;9.43;;;;;;;-143.84;85.59;44534.97;5050266;28;20870;-77
2022/12/25 00:27:15;;;;;;;13.23;9.67;;;;;;;-143.84;85.52;44534.97;5050761;28;20486;-77
2022/12/25 00:29:42;;;;;;;13.33;9.40;;;;;;;-143.84;85.47;44565.44;5050164;28;20474;-77
2022/12/25 00:32:10;;;;;;;13.60;10.00;;;;;;;-143.84;85.18;44586.38;5050266;28;20464;-76
2022/12/25 00:34:37;;;;;;;16.93;10.63;;;;;;;-143.84;85.20;44538.78;5050227;28;20449;-77
2022/12/25 00:37:04;;;;;;;13.60;9.80;;;;;;;-143.84;85.09;44548.31;5050375;28;20886;-77
2022/12/25 00:39:31;;;;;;;13.33;9.23;;;;;;;-143.84;85.11;44580.69;5050124;28;20476;-77
2022/12/25 00:44:44;;;;;;;14.77;11.07;;;;;;;-143.84;85.37;44592.09;5050029;28;21130;-77
2022/12/25 00:47:11;;;;;;;15.10;10.93;;;;;;;-143.84;85.34;44563.53;5050260;28;20529;-76
2022/12/25 00:49:38;;;;;;;14.53;10.20;;;;;;;-143.84;85.45;44555.94;5050420;28;20437;-76
2022/12/25 00:52:06;;;;;;;12.70;9.47;;;;;;;-143.84;85.09;44552.13;5049916;28;20448;-77
2022/12/25 00:54:34;;;;;;;11.47;9.90;;;;;;;-143.84;85.16;44563.53;5050421;28;20517;-77
2022/12/25 00:57:02;;;;;;;13.30;10.40;;;;;;;-143.84;85.37;44573.06;5052158;28;20444;-77
2022/12/25 00:59:32;;;;;;;15.90;10.77;;;;;;;-143.84;85.04;44584.47;5053469;28;20901;-77
2022/12/25 01:02:22;;;;;;;17.33;12.10;;;;;;;-143.84;85.06;44641.59;5053189;28;20983;-77
2022/12/25 01:04:48;;;;;;;13.60;10.10;;;;;;;-143.84;84.91;44580.69;5053022;28;20444;-77
2022/12/25 01:07:16;;;;;;;16.70;10.23;;;;;;;-143.84;85.01;44634.00;5052948;28;20968;-77
2022/12/25 01:12:29;;;;;;;18.20;10.77;;;;;;;-143.84;84.68;44670.16;5053963;28;20955;-77
2022/12/25 01:14:56;;;;;;;16.23;10.67;;;;;;;-143.84;84.55;44694.91;5053416;28;20969;-77
2022/12/25 01:17:24;;;;;;;18.03;11.23;;;;;;;-143.84;84.79;44731.09;5053871;28;20443;-77
2022/12/25 01:19:51;;;;;;;17.50;11.67;;;;;;;-143.84;84.56;44702.53;5053513;28;20892;-77
2022/12/25 01:22:18;;;;;;;13.90;10.60;;;;;;;-143.84;84.36;44740.59;5053330;28;20484;-78
2022/12/25 01:24:46;;;;;;;16.37;11.10;;;;;;;-143.84;84.52;44727.28;5053840;28;20428;-76
2022/12/25 01:27:13;;;;;;;19.50;12.37;;;;;;;-143.84;84.54;44744.41;5053738;28;20867;-78
2022/12/25 01:29:41;;;;;;;14.80;10.67;;;;;;;-143.84;84.34;44752.03;5053832;28;20427;-78
2022/12/25 01:32:09;;;;;;;14.37;11.70;;;;;;;-143.84;84.30;44755.84;5053965;28;20432;-78
2022/12/25 01:34:36;;;;;;;13.17;10.90;;;;;;;-143.84;84.50;44778.69;5053982;28;20440;-77
2022/12/25 01:37:03;;;;;;;12.80;11.10;;;;;;;-143.84;84.49;44790.13;5053511;28;20505;-77
2022/12/25 01:39:30;;;;;;;13.97;10.90;;;;;;;-143.84;84.41;44744.41;5053448;28;20478;-78
2022/12/25 01:41:58;;;;;;;12.63;10.30;;;;;;;-143.84;84.24;44759.66;5053751;28;21239;-77
2022/12/25 01:45:16;;;;;;;16.30;11.87;;;;;;;-143.84;84.28;44771.06;5053491;28;20448;-77
2022/12/25 01:47:45;;;;;;;13.80;10.73;;;;;;;-143.84;84.17;44820.56;5028007;28;20505;-77
2022/12/25 01:50:12;;;;;;;15.20;11.40;;;;;;;-143.84;84.26;44795.81;5052924;28;20455;-78
2022/12/25 01:52:39;;;;;;;17.87;12.07;;;;;;;-143.84;84.06;44803.44;5052903;28;20442;-78
2022/12/25 01:55:10;;;;;;;17.63;12.17;;;;;;;-143.84;84.06;44809.16;5052801;28;20441;-78
2022/12/25 01:57:38;;;;;;;15.67;11.43;;;;;;;-143.84;84.09;44851.03;5051844;28;20447;-78
2022/12/25 02:00:07;;;;;;;22.07;11.40;;;;;;;-143.84;84.02;44824.38;5052005;28;20548;-78
2022/12/25 02:02:35;;;;;;;13.93;11.10;;;;;;;-143.84;83.79;44839.63;5053401;28;20444;-77
2022/12/25 02:05:08;;;;;;;16.37;11.50;;;;;;;-143.84;84.20;44845.31;5053167;28;20431;-77
2022/12/25 02:07:40;;;;;;;16.83;11.80;;;;;;;-143.84;83.87;44826.28;5052630;28;20835;-77
2022/12/25 02:10:08;;;;;;;15.13;11.33;;;;;;;-143.84;83.61;44852.94;5052945;28;20465;-77
2022/12/25 02:12:36;;;;;;;16.63;11.70;;;;;;;-143.84;83.52;44889.13;5052686;28;20509;-77
2022/12/25 02:15:08;;;;;;;16.53;12.20;;;;;;;-143.84;83.57;44919.59;5052813;28;20438;-77
2022/12/25 02:17:41;;;;;;;14.00;10.67;;;;;;;-143.84;83.12;44931.00;5052330;28;21023;-77
2022/12/25 02:20:31;;;;;;;15.87;12.10;;;;;;;-143.84;82.70;44950.06;5052761;28;20476;-77
2022/12/25 02:23:12;;;;;;;13.23;10.17;;;;;;;-143.84;82.67;44946.25;5052482;28;20571;-77
2022/12/25 02:25:53;;;;;;;15.50;11.80;;;;;;;-143.84;82.87;44955.75;5052726;28;20767;-77
2022/12/25 02:28:28;;;;;;;13.87;10.73;;;;;;;-143.84;82.55;44965.28;5052452;28;20505;-76
2022/12/25 02:31:01;;;;;;;16.47;10.93;;;;;;;-143.84;82.38;44990.03;5052474;28;20446;-77
2022/12/25 02:36:23;;;;;;;18.03;11.63;;;;;;;-143.84;82.01;45014.78;5066199;28;20434;-77
2022/12/25 02:41:44;;;;;;;15.07;10.23;;;;;;;-143.84;81.51;45026.22;5037731;28;20432;-77
2022/12/25 03:06:45;;;;;;;13.80;10.33;;;;;;;-143.84;80.99;45056.69;5036998;28;21333;-77
2022/12/25 03:12:07;;;;;;;13.60;9.90;;;;;;;-143.84;81.11;45068.13;5052127;28;20428;-77
2022/12/25 03:17:20;;;;;;;17.07;9.90;;;;;;;-143.84;80.85;45071.91;5051984;28;20419;-77
2022/12/25 03:28:05;;;;;;;14.53;11.50;;;;;;;-143.84;80.30;45102.38;5051334;28;20431;-77
2022/12/25 03:33:34;;;;;;;15.80;10.07;;;;;;;-143.84;80.48;45089.06;5051351;28;20430;-77
2022/12/25 03:36:09;;;;;;;15.47;10.60;;;;;;;-143.84;80.31;45098.56;5051304;28;20874;-77
2022/12/25 04:37:19;;;;;;;15.17;10.27;;;;;;;-143.84;79.48;45117.63;5075314;28;21279;-78
2022/12/25 04:39:48;;;;;;;15.23;10.57;;;;;;;-143.84;79.75;45129.03;5075442;28;20485;-78
2022/12/25 04:42:16;;;;;;;14.93;10.40;;;;;;;-143.84;79.46;45111.91;5075277;28;20507;-78
2022/12/25 04:44:43;;;;;;;13.07;9.70;;;;;;;-143.84;79.33;45138.56;5075577;28;20502;-78
2022/12/25 04:47:10;;;;;;;12.87;9.27;;;;;;;-143.84;79.24;45119.53;5075335;28;20450;-78
2022/12/25 04:49:37;;;;;;;16.13;10.40;;;;;;;-143.84;79.45;45134.75;5074954;28;20781;-78
2022/12/25 04:52:05;;;;;;;14.27;9.10;;;;;;;-143.84;79.42;45117.63;5035051;28;20945;-79
2022/12/25 04:54:32;;;;;;;14.27;10.10;;;;;;;-143.84;79.74;45123.34;5035425;28;20972;-79
2022/12/25 04:57:01;;;;;;;17.40;10.80;;;;;;;-143.84;79.93;45129.03;5035072;28;20838;-78
2022/12/25 04:59:28;;;;;;;16.17;9.67;;;;;;;-143.84;79.36;45113.81;5035094;28;20545;-78
2022/12/25 05:01:55;;;;;;;10.37;8.73;;;;;;;-143.84;79.08;45132.84;5034860;28;20485;-78
2022/12/25 05:04:22;;;;;;;12.87;8.50;;;;;;;-143.84;79.11;45134.75;5034527;28;20438;-78
2022/12/25 05:06:49;;;;;;;14.77;9.53;;;;;;;-143.84;79.33;45123.34;5035070;28;20516;-79
2022/12/25 05:09:16;;;;;;;12.33;8.27;;;;;;;-143.84;79.22;45129.03;5035110;28;20447;-79
2022/12/25 05:11:43;;;;;;;13.97;9.10;;;;;;;-143.84;78.94;45138.56;5034869;28;20451;-79
2022/12/25 05:14:12;;;;;;;13.60;8.00;;;;;;;-143.84;79.16;45129.03;5035061;28;20493;-79
2022/12/25 05:16:39;;;;;;;13.70;8.40;;;;;;;-143.84;79.54;45136.66;5035106;28;20984;-79
2022/12/25 05:19:07;;;;;;;12.00;9.23;;;;;;;-143.84;79.08;45127.13;5034328;28;20953;-77
2022/12/25 05:21:34;;;;;;;11.27;8.57;;;;;;;-143.84;79.44;45121.44;5033861;28;20483;-77
2022/12/25 05:24:01;;;;;;;19.20;11.23;;;;;;;-143.84;79.37;45130.94;5038265;28;20512;-77
2022/12/25 05:26:28;;;;;;;13.20;9.57;;;;;;;-143.84;79.55;45100.47;5074267;28;20526;-77
2022/12/25 05:28:55;;;;;;;15.53;8.93;;;;;;;-143.84;79.74;45115.72;5073811;28;20441;-77
2022/12/25 05:31:24;;;;;;;13.70;9.77;;;;;;;-143.84;79.63;45150.00;5073987;28;20432;-77
2022/12/25 05:33:54;;;;;;;11.13;8.33;;;;;;;-143.84;79.66;45140.47;5073786;28;20960;-77
2022/12/25 05:36:21;;;;;;;13.30;9.10;;;;;;;-143.84;79.62;45127.13;5073857;28;20461;-77
2022/12/25 05:38:48;;;;;;;13.63;8.90;;;;;;;-143.84;79.17;45123.34;5074300;28;20834;-78
2022/12/25 05:41:15;;;;;;;10.00;7.80;;;;;;;-143.84;79.39;45129.03;5073854;28;20554;-78
2022/12/25 05:43:43;;;;;;;12.67;8.87;;;;;;;-143.84;79.29;45129.03;5073215;28;20453;-75
2022/12/25 05:46:10;;;;;;;15.90;8.80;;;;;;;-143.84;79.00;45134.75;5073610;28;20824;-80
2022/12/25 05:48:40;;;;;;;13.10;8.93;;;;;;;-143.84;78.90;45151.91;5073614;28;20437;-79
2022/12/25 05:51:08;;;;;;;15.00;8.63;;;;;;;-143.84;79.56;45132.84;5073970;28;20859;-77
2022/12/25 05:53:36;;;;;;;12.50;9.23;;;;;;;-143.84;78.77;45113.81;5073430;28;20441;-76
2022/12/25 05:56:05;;;;;;;14.00;9.07;;;;;;;-143.84;78.73;45148.09;5073444;28;20847;-78
2022/12/25 05:58:34;;;;;;;13.20;9.47;;;;;;;-143.84;78.65;45151.91;5073037;28;20506;-77
2022/12/25 06:01:02;;;;;;;12.70;9.00;;;;;;;-143.84;78.70;45134.75;5073900;28;20470;-79
2022/12/25 06:03:31;;;;;;;15.00;8.63;;;;;;;-143.84;78.71;45125.22;5073578;28;20434;-78
2022/12/25 06:05:59;;;;;;;10.00;8.20;;;;;;;-143.84;78.94;45151.91;5074111;28;20445;-83
2022/12/25 06:08:26;;;;;;;13.87;8.87;;;;;;;-143.84;78.66;45155.69;5074554;28;20500;-82
2022/12/25 06:10:53;;;;;;;11.27;8.20;;;;;;;-143.84;78.13;45117.63;5074210;28;20987;-80
2022/12/25 06:13:20;;;;;;;11.23;8.53;;;;;;;-143.84;78.65;45163.31;5074332;28;20490;-81
2022/12/25 06:15:47;;;;;;;12.43;8.17;;;;;;;-143.84;77.85;45174.75;5074421;28;20429;-80
2022/12/25 06:18:15;;;;;;;12.43;8.50;;;;;;;-143.84;78.27;45140.47;5073508;28;20442;-80
2022/12/25 06:20:42;;;;;;;13.00;8.60;;;;;;;-143.84;78.20;45140.47;5073944;28;20877;-81
2022/12/25 06:23:10;;;;;;;11.30;7.73;;;;;;;-143.84;78.28;45106.19;5073613;28;20601;-82
2022/12/25 06:25:39;;;;;;;12.37;9.03;;;;;;;-143.84;77.75;45136.66;5073534;28;20450;-82
2022/12/25 06:28:06;;;;;;;20.30;9.40;;;;;;;-143.84;77.69;45144.28;5073640;28;20474;-81
2022/12/25 06:30:35;;;;;;;9.10;7.83;;;;;;;-143.84;77.63;45159.50;5073891;28;20457;-78
2022/12/25 06:33:02;;;;;;;12.33;8.20;;;;;;;-143.84;77.34;45170.94;5072392;28;20429;-82
2022/12/25 06:35:29;;;;;;;12.70;8.40;;;;;;;-143.84;77.34;45155.69;5073004;28;20434;-80
2022/12/25 06:37:56;;;;;;;12.93;8.33;;;;;;;-143.84;77.07;45140.47;5072545;28;20437;-81
2022/12/25 06:40:25;;;;;;;13.00;8.20;;;;;;;-143.84;77.11;45155.69;5070852;28;20483;-77
2022/12/25 06:42:52;;;;;;;11.40;8.27;;;;;;;-143.84;76.66;45161.41;5072779;28;20454;-79
2022/12/25 06:45:20;;;;;;;11.13;8.27;;;;;;;-143.84;76.42;45151.91;5073368;28;20536;-84
2022/12/25 06:47:47;;;;;;;11.23;7.70;;;;;;;-143.84;76.42;45146.19;5073401;28;20452;-76
2022/12/25 06:50:14;;;;;;;9.10;7.70;;;;;;;-143.84;76.16;45140.47;5073186;28;20985;-84
2022/12/25 06:52:41;;;;;;;12.47;9.20;;;;;;;-143.84;75.90;45174.75;5073228;28;20433;-82
2022/12/25 06:55:09;;;;;;;8.63;7.20;;;;;;;-143.84;75.46;45144.28;5072499;28;20438;-79
2022/12/25 06:57:38;;;;;;;10.20;7.67;;;;;;;-143.84;74.53;45157.59;5073801;28;20777;-82
2022/12/25 07:00:07;;;;;;;12.47;8.20;;;;;;;-143.84;73.32;45165.22;5055419;28;20474;-84
2022/12/25 07:02:37;;;;;;;10.50;6.83;;;;;;;-143.84;72.53;45157.59;5072711;28;20444;-80
2022/12/25 07:05:05;;;;;;;10.27;7.67;;;;;;;-143.84;72.29;45167.13;5073020;28;20441;-82
2022/12/25 07:07:32;;;;;;;10.33;7.50;;;;;;;-143.84;71.97;45150.00;5073020;28;20432;-79
2022/12/25 07:10:00;;;;;;;10.80;8.60;;;;;;;-143.84;72.13;45153.81;5073105;28;20447;-79
2022/12/25 07:12:27;;;;;;;10.73;8.03;;;;;;;-143.84;72.08;45159.50;5072686;28;20438;-79
2022/12/25 07:14:56;;;;;;;9.67;8.03;;;;;;;-143.84;72.18;45170.94;5072596;28;20526;-78
2022/12/25 07:17:24;;;;;;;8.80;7.77;;;;;;;-143.84;72.42;45174.75;5072779;28;20521;-80
2022/12/25 07:19:51;;;;;;;11.17;7.03;;;;;;;-143.84;72.81;45148.09;5072335;28;20464;-80
2022/12/25 07:22:18;;;;;;;18.13;7.13;;;;;;;-143.84;73.16;45155.69;5072455;28;21037;-78
2022/12/25 07:24:45;;;;;;;12.40;8.50;;;;;;;-143.84;72.34;45151.91;5072566;28;20915;-79
2022/12/25 07:27:13;;;;;;;10.20;8.60;;;;;;;-143.84;71.60;45144.28;5073093;28;20439;-79
2022/12/25 07:29:40;;;;;;;10.97;9.60;;;;;;;-143.84;71.06;45144.28;5072645;28;20471;-81
2022/12/25 07:32:08;;;;;;;16.97;9.77;;;;;;;-143.84;70.38;45178.56;5072776;28;20433;-81
2022/12/25 07:34:36;;;;;;;14.90;10.40;;;;;;;-143.84;70.45;45169.03;5071497;28;20498;-78
2022/12/25 07:37:03;;;;;;;15.97;10.10;;;;;;;-143.84;69.44;45176.66;5071148;28;20451;-80
2022/12/25 07:39:30;;;;;;;13.03;10.33;;;;;;;-143.84;68.89;45165.22;5070130;28;20449;-80
2022/12/25 07:41:57;;;;;;;13.43;9.50;;;;;;;-143.84;67.88;45155.69;5070947;28;20469;-78
2022/12/25 07:44:25;;;;;;;15.17;9.80;;;;;;;-143.84;67.32;45169.03;5072385;28;20437;-80
2022/12/25 07:46:52;;;;;;;14.27;11.70;;;;;;;-143.84;66.52;45155.69;5072218;28;20430;-78
2022/12/25 07:49:21;;;;;;;12.60;9.90;;;;;;;-143.84;66.62;45142.38;5071913;28;20437;-80
2022/12/25 07:51:48;;;;;;;14.13;10.03;;;;;;;-143.84;66.39;45169.03;5072341;28;20444;-82
2022/12/25 07:54:15;;;;;;;17.03;11.67;;;;;;;-143.84;66.74;45180.47;5072192;28;20480;-82
2022/12/25 07:56:42;;;;;;;16.63;10.50;;;;;;;-143.84;66.18;45167.13;5051878;28;20494;-77
2022/12/25 07:59:09;;;;;;;17.47;10.10;;;;;;;-143.84;66.59;45142.38;5051827;28;20499;-81
2022/12/25 08:01:36;;;;;;;13.63;10.23;;;;;;;-143.84;66.19;45138.56;5051725;28;20479;-79
2022/12/25 08:04:04;;;;;;;15.20;10.60;;;;;;;-143.84;66.05;45121.44;5051204;28;20455;-80
2022/12/25 08:06:35;;;;;;;14.23;11.43;;;;;;;-143.84;64.73;45159.50;5051083;28;20477;-79
2022/12/25 08:09:05;;;;;;;17.37;11.60;;;;;;;-143.84;64.40;45132.84;5051366;28;20441;-80
2022/12/25 08:11:33;;;;;;;17.13;11.70;;;;;;;-143.84;64.48;45142.38;5051433;28;20462;-79
2022/12/25 08:14:00;;;;;;;24.93;12.57;;;;;;;-143.84;64.59;45167.13;5051242;28;21243;-79
2022/12/25 08:16:27;;;;;;;15.43;10.90;;;;;;;-143.84;63.89;45146.19;5051123;28;20868;-79
2022/12/25 08:18:55;;;;;;;17.60;12.30;;;;;;;-143.84;63.87;45191.88;5050082;28;20438;-79
2022/12/25 08:21:22;;;;;;;15.47;10.60;;;;;;;-143.84;62.22;45113.81;5055503;28;20488;-79
2022/12/25 08:23:50;;;;;;;14.53;10.40;;;;;;;-143.84;61.60;45148.09;5071124;28;20501;-80
2022/12/25 08:26:21;;;;;;;14.27;10.30;;;;;;;-143.84;60.72;45140.47;5067744;28;20509;-80
2022/12/25 08:28:50;;;;;;;16.93;10.90;;;;;;;-143.84;59.53;45146.19;5071255;28;20432;-80
2022/12/25 08:31:19;;;;;;;16.57;10.93;;;;;;;-143.84;58.81;45140.47;5068429;28;20438;-80
2022/12/25 08:33:47;;;;;;;16.03;11.37;;;;;;;-143.84;58.33;45146.19;5070702;28;20431;-80
2022/12/25 08:36:14;;;;;;;14.73;10.43;;;;;;;-143.84;57.59;45130.94;5071359;28;20958;-82
2022/12/25 08:38:41;;;;;;;14.10;10.17;;;;;;;-143.84;56.40;45129.03;5071217;28;20440;-82
2022/12/25 08:41:11;;;;;;;12.13;8.90;;;;;;;-143.84;55.03;45146.19;5058320;28;20465;-82
2022/12/25 08:43:39;;;;;;;14.70;9.70;;;;;;;-143.84;56.03;45119.53;5050984;28;20926;-82
2022/12/25 08:46:07;;;;;;;13.30;10.23;;;;;;;-143.84;57.59;45163.31;5050756;28;20501;-81
2022/12/25 08:48:34;;;;;;;13.80;10.37;;;;;;;-143.84;58.38;45163.31;5050972;28;20432;-81
2022/12/25 08:51:01;;;;;;;15.40;11.10;;;;;;;-143.84;59.50;45153.81;5069066;28;20840;-80
2022/12/25 08:53:29;;;;;;;18.90;12.50;;;;;;;-143.84;60.76;45151.91;5071773;28;20854;-82
2022/12/25 08:56:00;;;;;;;17.80;11.10;;;;;;;-143.84;61.58;45170.94;5071913;28;20432;-82
2022/12/25 08:58:28;;;;;;;14.33;11.50;;;;;;;-143.84;62.20;45150.00;5071508;28;20445;-82
2022/12/25 09:00:56;;;;;;;15.87;11.00;;;;;;;-143.84;62.75;45169.03;5071310;28;20886;-77
2022/12/25 09:03:23;;;;;;;14.30;10.30;;;;;;;-143.84;62.77;45155.69;5071994;28;20440;-84
2022/12/25 09:05:51;;;;;;;15.10;10.07;;;;;;;-143.84;62.34;45142.38;5072774;28;20440;-81
2022/12/25 09:08:18;;;;;;;12.40;8.90;;;;;;;-143.84;62.17;45157.59;5071595;28;20429;-81
2022/12/25 09:10:46;;;;;;;9.97;8.10;;;;;;;-143.84;61.97;45148.09;5071536;28;20470;-84
2022/12/25 09:13:13;;;;;;;9.97;7.67;;;;;;;-143.84;59.68;45110.00;5071632;28;20439;-81
2022/12/25 09:15:41;;;;;;;11.27;8.10;;;;;;;-143.84;57.84;45157.59;5071903;28;20429;-83
2022/12/25 09:18:08;;;;;;;8.77;6.80;;;;;;;-143.84;57.33;45130.94;5033487;28;20492;-79
2022/12/25 09:20:36;;;;;;;11.63;8.23;;;;;;;-143.84;55.74;45151.91;5034037;28;20481;-81
2022/12/25 09:23:03;;;;;;;13.57;9.67;;;;;;;-143.84;54.99;45136.66;5034906;28;20837;-83
2022/12/25 09:25:30;;;;;;;11.80;8.97;;;;;;;-143.84;55.51;45125.22;5034742;28;20437;-82
2022/12/25 09:27:57;;;;;;;12.87;9.27;;;;;;;-143.84;53.28;45110.00;5035029;28;20504;-82
2022/12/25 09:30:24;;;;;;;11.10;7.20;;;;;;;-143.84;50.99;45119.53;5035062;28;20443;-83
2022/12/25 09:32:53;;;;;;;12.40;9.67;;;;;;;-143.84;50.43;45108.09;5035356;28;20440;-82
2022/12/25 09:35:20;;;;;;;11.30;6.77;;;;;;;-143.84;47.74;45127.13;5035554;28;20455;-82
2022/12/25 09:37:47;;;;;;;9.10;6.97;;;;;;;-143.84;48.04;45115.72;5034975;28;20449;-81
2022/12/25 09:40:17;;;;;;;8.87;7.20;;;;;;;-143.84;48.34;45096.66;5033822;28;20827;-79
2022/12/25 09:42:45;;;;;;;8.20;6.73;;;;;;;-143.84;47.39;45136.66;5035229;28;20444;-81
2022/12/25 09:45:18;;;;;;;10.23;7.20;;;;;;;-143.84;46.76;45098.56;5035611;28;20441;-78
2022/12/25 09:47:49;;;;;;;10.40;7.90;;;;;;;-143.84;45.58;45117.63;5034566;28;20432;-76
2022/12/25 09:50:23;;;;;;;6.70;6.00;;;;;;;-143.84;46.06;45119.53;5034589;28;20521;-82
2022/12/25 09:52:55;;;;;;;11.70;7.67;;;;;;;-143.84;45.81;45108.09;5071397;28;20459;-80
2022/12/25 09:55:24;;;;;;;17.57;9.90;;;;;;;-143.84;46.45;45113.81;5074539;28;20429;-80
2022/12/25 09:57:54;;;;;;;10.40;7.83;;;;;;;-143.84;46.04;45132.84;5074533;28;20506;-80
2022/12/25 10:00:25;;;;;;;9.10;6.87;;;;;;;-143.84;45.78;45117.63;5074096;28;20444;-79
2022/12/25 10:03:28;;;;;;;9.17;7.30;;;;;;;-143.84;44.82;45119.53;5073936;28;20453;-80
2022/12/25 10:06:11;;;;;;;6.77;5.80;;;;;;;-143.84;44.90;45140.47;5052311;28;20460;-81
2022/12/25 10:09:03;;;;;;;8.80;6.43;;;;;;;-143.84;43.86;45140.47;5054950;28;20799;-81
2022/12/25 10:11:46;;;;;;;6.97;6.00;;;;;;;-143.84;44.16;45098.56;5060653;28;20433;-83
2022/12/25 10:14:28;;;;;;;8.30;7.27;;;;;;;-143.84;44.46;45110.00;5060409;28;20769;-82
2022/12/25 10:17:19;;;;;;;9.80;6.73;;;;;;;-143.84;44.22;45110.00;5055493;28;20984;-83
2022/12/25 10:19:53;;;;;;;18.47;6.20;;;;;;;-143.84;43.25;45089.06;5034529;28;20825;-81
2022/12/25 10:22:28;;;;;;;10.53;7.03;;;;;;;-143.84;43.29;45102.38;5033609;28;21082;-83
2022/12/25 10:25:00;;;;;;;7.70;6.60;;;;;;;-143.84;43.56;45121.44;5033632;28;20508;-82
2022/12/25 10:27:43;;;;;;;6.87;5.50;;;;;;;-143.84;42.56;45132.84;5033873;28;20927;-80
2022/12/25 10:30:15;;;;;;;7.37;5.70;;;;;;;-143.84;42.61;45110.00;5033356;28;20512;-82
2022/12/25 10:32:43;;;;;;;7.27;5.50;;;;;;;-143.84;42.53;45121.44;5033695;28;20447;-81
2022/12/25 10:35:12;;;;;;;7.73;6.00;;;;;;;-143.84;42.40;45119.53;5034095;28;20435;-82
2022/12/25 10:37:42;;;;;;;7.10;4.90;;;;;;;-143.84;42.12;45121.44;5033630;28;20534;-82
2022/12/25 10:40:28;;;;;;;6.63;5.90;;;;;;;-143.84;42.04;45121.44;5033697;28;20443;-81
2022/12/25 10:43:02;;;;;;;6.73;5.50;;;;;;;-143.84;41.81;45121.44;5033442;28;20470;-80
2022/12/25 10:45:30;;;;;;;6.10;5.40;;;;;;;-143.84;42.29;45113.81;5033467;28;20437;-82
2022/12/25 10:48:04;;;;;;;7.17;5.70;;;;;;;-143.84;41.92;45111.91;5034015;28;20500;-83
2022/12/25 10:50:32;;;;;;;7.27;6.53;;;;;;;-143.84;42.08;45100.47;5033227;28;20945;-80
2022/12/25 10:53:04;;;;;;;7.07;5.43;;;;;;;-143.84;42.24;45102.38;5033827;28;20434;-81
2022/12/25 10:55:32;;;;;;;6.00;5.40;;;;;;;-143.84;42.21;45094.78;5032166;28;20438;-80
2022/12/25 10:58:00;;;;;;;7.90;5.73;;;;;;;-143.84;41.61;45121.44;5032021;28;20501;-81
2022/12/25 11:00:30;;;;;;;6.13;5.13;;;;;;;-143.84;41.54;45111.91;5033160;28;20485;-82
2022/12/25 11:02:57;;;;;;;5.53;4.93;;;;;;;-143.84;41.68;45110.00;5033177;28;20474;-78
2022/12/25 11:05:28;;;;;;;4.50;4.10;;;;;;;-143.84;40.68;45106.19;5032607;28;20442;-79
2022/12/25 11:08:04;;;;;;;6.97;4.93;;;;;;;-143.84;40.41;45089.06;5033026;28;20450;-77
2022/12/25 11:10:36;;;;;;;3.80;3.50;;;;;;;-143.84;40.34;45100.47;5050647;28;20497;-80
2022/12/25 11:13:08;;;;;;;5.37;3.93;;;;;;;-143.84;40.68;45111.91;5073047;28;20429;-79
2022/12/25 11:15:38;;;;;;;6.53;4.07;;;;;;;-143.84;40.89;45119.53;5058786;28;20422;-79
2022/12/25 11:18:19;;;;;;;5.13;4.67;;;;;;;-143.84;40.80;45108.09;5052277;28;20934;-78
2022/12/25 11:20:51;;;;;;;4.57;4.17;;;;;;;-143.84;41.40;45104.28;5052203;28;20452;-80
2022/12/25 11:23:22;;;;;;;8.00;4.73;;;;;;;-143.84;41.11;45110.00;5052746;28;20444;-79
2022/12/25 11:25:57;;;;;;;4.20;3.90;;;;;;;-143.84;41.43;45085.25;5052527;28;20449;-79
2022/12/25 11:28:25;;;;;;;5.00;4.50;;;;;;;-143.84;41.24;45110.00;5056951;28;20764;-83
2022/12/25 11:30:57;;;;;;;4.73;4.33;;;;;;;-143.84;41.25;45102.38;5066168;28;20445;-77
2022/12/25 11:33:29;;;;;;;4.47;4.03;;;;;;;-143.84;41.43;45117.63;5063766;28;20427;-78
2022/12/25 11:35:58;;;;;;;6.43;4.67;;;;;;;-143.84;41.42;45104.28;5071977;28;20440;-77
2022/12/25 11:38:27;;;;;;;6.43;5.40;;;;;;;-143.84;41.48;45108.09;5072194;28;20447;-78
2022/12/25 11:40:58;;;;;;;4.33;3.90;;;;;;;-143.84;40.43;45104.28;5072028;28;20454;-78
2022/12/25 11:43:30;;;;;;;6.33;4.30;;;;;;;-143.84;41.06;45115.72;5073032;28;20546;-79
2022/12/25 11:46:05;;;;;;;5.40;4.90;;;;;;;-143.84;41.51;45125.22;5072446;28;20896;-78
2022/12/25 11:48:37;;;;;;;5.27;3.90;;;;;;;-143.84;41.16;45110.00;5072795;28;20796;-79
2022/12/25 11:51:06;;;;;;;8.80;5.20;;;;;;;-143.84;41.84;45092.88;5072289;28;20445;-79
2022/12/25 11:53:41;;;;;;;5.93;5.20;;;;;;;-143.84;42.60;45108.09;5068948;28;20952;-78
2022/12/25 11:56:10;;;;;;;5.67;4.63;;;;;;;-143.84;42.19;45106.19;5052618;28;20812;-81
2022/12/25 11:58:42;;;;;;;6.87;5.30;;;;;;;-143.84;42.14;45087.16;5052655;28;20471;-81
2022/12/25 12:01:31;;;;;;;5.80;4.20;;;;;;;-143.84;41.12;45090.97;5052172;28;20769;-82
2022/12/25 12:04:00;;;;;;;5.40;4.90;;;;;;;-143.84;40.97;45132.84;5052416;28;20436;-81
2022/12/25 12:06:34;;;;;;;5.67;4.20;;;;;;;-143.84;41.25;45100.47;5052459;28;20448;-78
2022/12/25 12:09:26;;;;;;;4.93;4.37;;;;;;;-143.84;41.81;45127.13;5052062;28;20526;-80
2022/12/25 12:12:01;;;;;;;7.93;4.83;;;;;;;-143.84;41.95;45125.22;5051307;28;20449;-80
2022/12/25 12:14:42;;;;;;;6.97;4.60;;;;;;;-143.84;41.94;45132.84;5051595;28;20434;-80
2022/12/25 12:17:12;;;;;;;8.20;5.20;;;;;;;-143.84;42.73;45117.63;5051616;28;20506;-79
2022/12/25 12:19:39;;;;;;;7.40;4.93;;;;;;;-143.84;43.08;45138.56;5052023;28;20484;-80
2022/12/25 12:22:07;;;;;;;6.83;4.50;;;;;;;-143.84;43.19;45121.44;5051609;28;20513;-81
2022/12/25 12:24:38;;;;;;;5.30;4.53;;;;;;;-143.84;42.94;45106.19;5052350;28;20438;-80
2022/12/25 12:27:13;;;;;;;6.80;4.70;;;;;;;-143.84;43.01;45130.94;5052193;28;20453;-80
2022/12/25 12:29:44;;;;;;;7.40;4.57;;;;;;;-143.84;43.04;45117.63;5051489;28;20492;-79
2022/12/25 12:32:34;;;;;;;4.57;4.10;;;;;;;-143.84;42.61;45125.22;5052012;28;20442;-79
2022/12/25 12:35:09;;;;;;;9.53;5.00;;;;;;;-143.84;43.19;45119.53;5071367;28;20434;-78
2022/12/25 12:37:39;;;;;;;9.50;4.73;;;;;;;-143.84;42.91;45151.91;5071250;28;20442;-77
2022/12/25 12:40:21;;;;;;;4.47;3.90;;;;;;;-143.84;42.82;45125.22;5072464;28;20543;-78
2022/12/25 12:42:51;;;;;;;4.23;3.93;;;;;;;-143.84;42.97;45129.03;5071686;28;20472;-78
2022/12/25 12:45:23;;;;;;;5.03;4.53;;;;;;;-143.84;43.20;45119.53;5071173;28;20468;-78
2022/12/25 12:47:52;;;;;;;3.90;3.63;;;;;;;-143.84;43.50;45115.72;5064503;28;20442;-80
2022/12/25 12:50:31;;;;;;;4.43;4.10;;;;;;;-143.84;43.45;45163.31;5052407;28;20524;-83
2022/12/25 12:53:00;;;;;;;4.13;3.83;;;;;;;-143.84;43.28;45144.28;5054708;28;20472;-80
2022/12/25 12:55:33;;;;;;;4.47;3.57;;;;;;;-143.84;43.38;45140.47;5057019;28;20444;-81
2022/12/25 12:58:01;;;;;;;3.50;3.20;;;;;;;-143.84;43.61;45140.47;5057920;28;20496;-80
2022/12/25 13:00:38;;;;;;;3.87;3.57;;;;;;;-143.84;43.65;45125.22;5056338;28;20445;-80
2022/12/25 13:03:25;;;;;;;3.60;3.33;;;;;;;-143.84;44.12;45121.44;5057422;28;20472;-77
2022/12/25 13:05:58;;;;;;;6.10;4.20;;;;;;;-143.84;43.90;45127.13;5056014;28;20429;-76
2022/12/25 13:08:35;;;;;;;4.80;4.17;;;;;;;-143.84;44.22;45136.66;5056102;28;20438;-80
2022/12/25 13:11:12;;;;;;;5.40;4.60;;;;;;;-143.84;43.99;45111.91;5056968;28;20429;-79